sensor_id;sensor_type;location;lat;lon;timestamp;temperature;humidity
42835;DHT22;29335;50.526;30.458;2022-07-01T00:00:36;23.00;99.50
42835;DHT22;29335;50.526;30.458;2022-07-01T00:03:01;23.10;99.60
42835;DHT22;29335;50.526;30.458;2022-07-01T00:05:27;23.10;99.50
42835;DHT22;29335;50.526;30.458;2022-07-01T00:07:52;23.10;99.70
42835;DHT22;29335;50.526;30.458;2022-07-01T00:10:18;23.00;99.90
42835;DHT22;29335;50.526;30.458;2022-07-01T00:12:45;22.90;99.70
42835;DHT22;29335;50.526;30.458;2022-07-01T00:15:12;23.00;99.80
42835;DHT22;29335;50.526;30.458;2022-07-01T00:17:37;22.90;99.80
42835;DHT22;29335;50.526;30.458;2022-07-01T00:20:04;23.00;99.80
42835;DHT22;29335;50.526;30.458;2022-07-01T00:22:30;22.90;99.70
42835;DHT22;29335;50.526;30.458;2022-07-01T00:24:55;22.90;99.70
42835;DHT22;29335;50.526;30.458;2022-07-01T00:27:21;22.90;99.80
42835;DHT22;29335;50.526;30.458;2022-07-01T00:29:47;22.90;99.80
42835;DHT22;29335;50.526;30.458;2022-07-01T00:32:13;22.90;99.80
42835;DHT22;29335;50.526;30.458;2022-07-01T00:34:39;22.90;99.80
42835;DHT22;29335;50.526;30.458;2022-07-01T00:37:04;22.90;99.80
42835;DHT22;29335;50.526;30.458;2022-07-01T00:39:30;22.90;99.90
42835;DHT22;29335;50.526;30.458;2022-07-01T00:42:01;22.90;99.80
42835;DHT22;29335;50.526;30.458;2022-07-01T00:44:28;22.90;99.90
42835;DHT22;29335;50.526;30.458;2022-07-01T00:46:55;22.80;99.90
42835;DHT22;29335;50.526;30.458;2022-07-01T00:49:21;23.10;99.90
42835;DHT22;29335;50.526;30.458;2022-07-01T00:51:47;22.90;99.90
42835;DHT22;29335;50.526;30.458;2022-07-01T00:54:14;23.30;99.90
42835;DHT22;29335;50.526;30.458;2022-07-01T00:56:40;22.80;99.90
42835;DHT22;29335;50.526;30.458;2022-07-01T00:59:06;22.80;99.90
42835;DHT22;29335;50.526;30.458;2022-07-01T01:01:31;22.80;99.90
42835;DHT22;29335;50.526;30.458;2022-07-01T01:03:57;22.80;99.90
42835;DHT22;29335;50.526;30.458;2022-07-01T01:06:23;22.70;99.90
42835;DHT22;29335;50.526;30.458;2022-07-01T01:08:49;22.80;99.90
42835;DHT22;29335;50.526;30.458;2022-07-01T01:11:15;22.70;99.90
42835;DHT22;29335;50.526;30.458;2022-07-01T01:13:41;22.70;99.90
42835;DHT22;29335;50.526;30.458;2022-07-01T01:16:07;22.60;99.90
42835;DHT22;29335;50.526;30.458;2022-07-01T01:18:33;22.70;99.90
42835;DHT22;29335;50.526;30.458;2022-07-01T01:21:00;22.60;99.90
42835;DHT22;29335;50.526;30.458;2022-07-01T01:23:25;22.70;99.90
42835;DHT22;29335;50.526;30.458;2022-07-01T01:25:51;22.60;99.90
42835;DHT22;29335;50.526;30.458;2022-07-01T01:28:17;22.50;99.90
42835;DHT22;29335;50.526;30.458;2022-07-01T01:30:43;22.60;99.90
42835;DHT22;29335;50.526;30.458;2022-07-01T01:33:08;22.50;99.90
42835;DHT22;29335;50.526;30.458;2022-07-01T01:35:35;22.50;99.90
42835;DHT22;29335;50.526;30.458;2022-07-01T01:38:00;22.40;99.90
42835;DHT22;29335;50.526;30.458;2022-07-01T01:40:26;22.50;99.90
42835;DHT22;29335;50.526;30.458;2022-07-01T01:42:52;22.40;99.90
42835;DHT22;29335;50.526;30.458;2022-07-01T01:45:18;22.40;99.90
42835;DHT22;29335;50.526;30.458;2022-07-01T01:47:43;22.50;99.90
42835;DHT22;29335;50.526;30.458;2022-07-01T01:50:11;22.50;99.90
42835;DHT22;29335;50.526;30.458;2022-07-01T01:52:38;22.50;99.90
42835;DHT22;29335;50.526;30.458;2022-07-01T01:55:04;22.40;99.90
42835;DHT22;29335;50.526;30.458;2022-07-01T01:57:30;22.40;99.90
42835;DHT22;29335;50.526;30.458;2022-07-01T01:59:56;22.40;99.90
42835;DHT22;29335;50.526;30.458;2022-07-01T02:02:22;22.40;99.90
42835;DHT22;29335;50.526;30.458;2022-07-01T02:04:48;22.40;99.90
42835;DHT22;29335;50.526;30.458;2022-07-01T02:07:13;22.30;99.90
42835;DHT22;29335;50.526;30.458;2022-07-01T02:09:39;22.60;99.90
42835;DHT22;29335;50.526;30.458;2022-07-01T02:12:05;22.20;99.90
42835;DHT22;29335;50.526;30.458;2022-07-01T02:14:31;22.00;99.90
42835;DHT22;29335;50.526;30.458;2022-07-01T02:16:56;22.20;99.90
42835;DHT22;29335;50.526;30.458;2022-07-01T02:19:22;22.40;99.90
42835;DHT22;29335;50.526;30.458;2022-07-01T02:21:47;22.40;99.90
42835;DHT22;29335;50.526;30.458;2022-07-01T02:24:16;22.10;99.90
42835;DHT22;29335;50.526;30.458;2022-07-01T02:26:42;22.10;99.90
42835;DHT22;29335;50.526;30.458;2022-07-01T02:29:07;22.60;99.90
42835;DHT22;29335;50.526;30.458;2022-07-01T02:31:33;22.70;99.90
42835;DHT22;29335;50.526;30.458;2022-07-01T02:33:59;22.20;99.90
42835;DHT22;29335;50.526;30.458;2022-07-01T02:36:24;22.40;99.90
42835;DHT22;29335;50.526;30.458;2022-07-01T02:38:50;22.30;99.90
42835;DHT22;29335;50.526;30.458;2022-07-01T02:41:15;22.50;99.90
42835;DHT22;29335;50.526;30.458;2022-07-01T02:43:41;22.50;99.90
42835;DHT22;29335;50.526;30.458;2022-07-01T02:46:06;22.50;99.90
42835;DHT22;29335;50.526;30.458;2022-07-01T02:48:32;22.70;99.90
42835;DHT22;29335;50.526;30.458;2022-07-01T02:50:58;23.20;99.90
42835;DHT22;29335;50.526;30.458;2022-07-01T02:53:23;23.20;99.90
42835;DHT22;29335;50.526;30.458;2022-07-01T02:55:49;23.30;99.90
42835;DHT22;29335;50.526;30.458;2022-07-01T02:58:15;23.50;99.90
42835;DHT22;29335;50.526;30.458;2022-07-01T03:00:40;23.70;99.70
42835;DHT22;29335;50.526;30.458;2022-07-01T03:03:06;23.60;99.60
42835;DHT22;29335;50.526;30.458;2022-07-01T03:05:32;23.50;99.70
42835;DHT22;29335;50.526;30.458;2022-07-01T03:07:57;23.30;99.90
42835;DHT22;29335;50.526;30.458;2022-07-01T03:10:23;23.20;99.90
42835;DHT22;29335;50.526;30.458;2022-07-01T03:12:49;23.10;99.90
42835;DHT22;29335;50.526;30.458;2022-07-01T03:15:15;23.20;99.90
42835;DHT22;29335;50.526;30.458;2022-07-01T03:17:46;23.10;99.90
42835;DHT22;29335;50.526;30.458;2022-07-01T03:20:14;23.00;99.90
42835;DHT22;29335;50.526;30.458;2022-07-01T03:22:41;22.90;99.90
42835;DHT22;29335;50.526;30.458;2022-07-01T03:25:08;22.90;99.90
42835;DHT22;29335;50.526;30.458;2022-07-01T03:27:34;22.90;99.90
42835;DHT22;29335;50.526;30.458;2022-07-01T03:30:00;23.00;99.90
42835;DHT22;29335;50.526;30.458;2022-07-01T03:32:25;22.90;99.90
42835;DHT22;29335;50.526;30.458;2022-07-01T03:34:52;22.90;99.90
42835;DHT22;29335;50.526;30.458;2022-07-01T03:37:19;22.90;99.90
42835;DHT22;29335;50.526;30.458;2022-07-01T03:39:45;23.30;99.90
42835;DHT22;29335;50.526;30.458;2022-07-01T03:42:11;23.60;99.90
42835;DHT22;29335;50.526;30.458;2022-07-01T03:44:38;24.00;99.30
42835;DHT22;29335;50.526;30.458;2022-07-01T03:47:04;24.40;98.50
42835;DHT22;29335;50.526;30.458;2022-07-01T03:49:33;24.70;97.80
42835;DHT22;29335;50.526;30.458;2022-07-01T03:51:59;25.10;97.20
42835;DHT22;29335;50.526;30.458;2022-07-01T03:54:25;25.20;97.10
42835;DHT22;29335;50.526;30.458;2022-07-01T03:57:03;25.40;96.70
42835;DHT22;29335;50.526;30.458;2022-07-01T03:59:30;25.60;96.30
42835;DHT22;29335;50.526;30.458;2022-07-01T04:01:56;25.40;96.30
42835;DHT22;29335;50.526;30.458;2022-07-01T04:04:23;25.20;96.60
42835;DHT22;29335;50.526;30.458;2022-07-01T04:06:49;25.10;96.80
42835;DHT22;29335;50.526;30.458;2022-07-01T04:09:16;25.00;97.00
42835;DHT22;29335;50.526;30.458;2022-07-01T04:11:46;24.80;97.30
42835;DHT22;29335;50.526;30.458;2022-07-01T04:14:13;24.80;97.30
42835;DHT22;29335;50.526;30.458;2022-07-01T04:16:39;24.80;97.40
42835;DHT22;29335;50.526;30.458;2022-07-01T04:19:04;24.70;97.50
42835;DHT22;29335;50.526;30.458;2022-07-01T04:21:30;24.60;97.60
42835;DHT22;29335;50.526;30.458;2022-07-01T04:24:15;24.70;97.60
42835;DHT22;29335;50.526;30.458;2022-07-01T04:26:41;25.00;97.40
42835;DHT22;29335;50.526;30.458;2022-07-01T04:29:07;25.10;97.30
42835;DHT22;29335;50.526;30.458;2022-07-01T04:31:37;25.10;97.30
42835;DHT22;29335;50.526;30.458;2022-07-01T04:34:04;25.10;97.30
42835;DHT22;29335;50.526;30.458;2022-07-01T04:36:30;25.20;97.40
42835;DHT22;29335;50.526;30.458;2022-07-01T04:38:55;25.60;96.70
42835;DHT22;29335;50.526;30.458;2022-07-01T04:41:21;27.40;97.10
42835;DHT22;29335;50.526;30.458;2022-07-01T04:44:05;26.00;96.70
42835;DHT22;29335;50.526;30.458;2022-07-01T04:46:31;26.10;96.50
42835;DHT22;29335;50.526;30.458;2022-07-01T04:48:57;26.20;96.40
42835;DHT22;29335;50.526;30.458;2022-07-01T04:51:22;26.20;96.40
42835;DHT22;29335;50.526;30.458;2022-07-01T04:53:48;26.60;95.70
42835;DHT22;29335;50.526;30.458;2022-07-01T04:56:14;26.70;95.50
42835;DHT22;29335;50.526;30.458;2022-07-01T04:58:40;26.90;95.50
42835;DHT22;29335;50.526;30.458;2022-07-01T05:01:05;27.40;95.10
42835;DHT22;29335;50.526;30.458;2022-07-01T05:03:31;27.50;94.40
42835;DHT22;29335;50.526;30.458;2022-07-01T05:05:57;27.70;93.60
42835;DHT22;29335;50.526;30.458;2022-07-01T05:08:23;27.80;93.70
42835;DHT22;29335;50.526;30.458;2022-07-01T05:10:49;27.50;94.20
42835;DHT22;29335;50.526;30.458;2022-07-01T05:13:14;27.30;94.60
42835;DHT22;29335;50.526;30.458;2022-07-01T05:15:40;27.20;94.70
42835;DHT22;29335;50.526;30.458;2022-07-01T05:18:05;27.10;94.50
42835;DHT22;29335;50.526;30.458;2022-07-01T05:20:50;27.30;94.30
42835;DHT22;29335;50.526;30.458;2022-07-01T05:23:34;27.50;93.80
42835;DHT22;29335;50.526;30.458;2022-07-01T05:26:01;27.60;93.70
42835;DHT22;29335;50.526;30.458;2022-07-01T05:28:27;27.60;93.80
42835;DHT22;29335;50.526;30.458;2022-07-01T05:30:53;27.70;93.30
42835;DHT22;29335;50.526;30.458;2022-07-01T05:33:19;27.80;93.60
42835;DHT22;29335;50.526;30.458;2022-07-01T05:35:46;27.60;93.80
42835;DHT22;29335;50.526;30.458;2022-07-01T05:38:12;27.60;94.10
42835;DHT22;29335;50.526;30.458;2022-07-01T05:40:38;27.60;93.90
42835;DHT22;29335;50.526;30.458;2022-07-01T05:43:03;27.80;94.10
42835;DHT22;29335;50.526;30.458;2022-07-01T05:45:29;28.10;93.90
42835;DHT22;29335;50.526;30.458;2022-07-01T05:47:55;28.50;92.60
42835;DHT22;29335;50.526;30.458;2022-07-01T05:50:22;28.80;92.20
42835;DHT22;29335;50.526;30.458;2022-07-01T05:52:48;28.30;92.50
42835;DHT22;29335;50.526;30.458;2022-07-01T05:55:13;28.60;91.10
42835;DHT22;29335;50.526;30.458;2022-07-01T05:57:39;28.50;91.10
42835;DHT22;29335;50.526;30.458;2022-07-01T06:00:05;28.60;90.80
42835;DHT22;29335;50.526;30.458;2022-07-01T06:02:31;28.60;90.80
42835;DHT22;29335;50.526;30.458;2022-07-01T06:04:56;28.40;90.80
42835;DHT22;29335;50.526;30.458;2022-07-01T06:07:24;28.30;91.20
42835;DHT22;29335;50.526;30.458;2022-07-01T06:09:50;28.10;91.40
42835;DHT22;29335;50.526;30.458;2022-07-01T06:12:15;28.00;91.70
42835;DHT22;29335;50.526;30.458;2022-07-01T06:14:41;28.00;91.60
42835;DHT22;29335;50.526;30.458;2022-07-01T06:17:06;27.90;91.70
42835;DHT22;29335;50.526;30.458;2022-07-01T06:19:33;27.90;91.80
42835;DHT22;29335;50.526;30.458;2022-07-01T06:21:59;28.00;91.70
42835;DHT22;29335;50.526;30.458;2022-07-01T06:24:24;27.80;92.00
42835;DHT22;29335;50.526;30.458;2022-07-01T06:26:50;27.60;92.30
42835;DHT22;29335;50.526;30.458;2022-07-01T06:29:15;27.70;92.40
42835;DHT22;29335;50.526;30.458;2022-07-01T06:31:41;28.20;91.80
42835;DHT22;29335;50.526;30.458;2022-07-01T06:34:07;28.40;91.50
42835;DHT22;29335;50.526;30.458;2022-07-01T06:36:33;28.00;91.80
42835;DHT22;29335;50.526;30.458;2022-07-01T06:38:58;28.10;91.40
42835;DHT22;29335;50.526;30.458;2022-07-01T06:41:24;28.10;91.50
42835;DHT22;29335;50.526;30.458;2022-07-01T06:43:54;27.80;91.60
42835;DHT22;29335;50.526;30.458;2022-07-01T06:46:20;27.80;91.20
42835;DHT22;29335;50.526;30.458;2022-07-01T06:48:45;27.60;91.40
42835;DHT22;29335;50.526;30.458;2022-07-01T06:51:11;27.50;91.60
42835;DHT22;29335;50.526;30.458;2022-07-01T06:53:37;27.70;91.80
42835;DHT22;29335;50.526;30.458;2022-07-01T06:56:04;27.70;91.70
42835;DHT22;29335;50.526;30.458;2022-07-01T06:58:29;27.80;91.40
42835;DHT22;29335;50.526;30.458;2022-07-01T07:00:55;27.50;91.90
42835;DHT22;29335;50.526;30.458;2022-07-01T07:03:20;27.60;91.40
42835;DHT22;29335;50.526;30.458;2022-07-01T07:05:46;27.80;91.30
42835;DHT22;29335;50.526;30.458;2022-07-01T07:08:12;27.80;91.60
42835;DHT22;29335;50.526;30.458;2022-07-01T07:10:37;28.00;90.40
42835;DHT22;29335;50.526;30.458;2022-07-01T07:13:03;28.10;90.20
42835;DHT22;29335;50.526;30.458;2022-07-01T07:15:29;28.40;90.10
42835;DHT22;29335;50.526;30.458;2022-07-01T07:17:55;28.60;89.40
42835;DHT22;29335;50.526;30.458;2022-07-01T07:20:25;28.50;90.00
42835;DHT22;29335;50.526;30.458;2022-07-01T07:22:52;28.40;89.30
42835;DHT22;29335;50.526;30.458;2022-07-01T07:25:17;28.10;90.40
42835;DHT22;29335;50.526;30.458;2022-07-01T07:27:43;28.00;90.10
42835;DHT22;29335;50.526;30.458;2022-07-01T07:30:13;28.20;88.60
42835;DHT22;29335;50.526;30.458;2022-07-01T07:32:38;28.10;90.00
42835;DHT22;29335;50.526;30.458;2022-07-01T07:35:05;28.00;90.50
42835;DHT22;29335;50.526;30.458;2022-07-01T07:37:32;28.00;90.90
42835;DHT22;29335;50.526;30.458;2022-07-01T07:39:58;27.80;91.30
42835;DHT22;29335;50.526;30.458;2022-07-01T07:42:23;27.70;91.40
42835;DHT22;29335;50.526;30.458;2022-07-01T07:44:49;27.70;91.60
42835;DHT22;29335;50.526;30.458;2022-07-01T07:47:15;27.80;91.00
42835;DHT22;29335;50.526;30.458;2022-07-01T07:49:40;27.50;91.50
42835;DHT22;29335;50.526;30.458;2022-07-01T07:52:06;27.40;90.90
42835;DHT22;29335;50.526;30.458;2022-07-01T07:54:32;27.40;90.70
42835;DHT22;29335;50.526;30.458;2022-07-01T07:56:58;27.40;90.70
42835;DHT22;29335;50.526;30.458;2022-07-01T07:59:23;27.70;90.60
42835;DHT22;29335;50.526;30.458;2022-07-01T08:01:49;27.80;87.80
42835;DHT22;29335;50.526;30.458;2022-07-01T08:04:14;27.60;85.80
42835;DHT22;29335;50.526;30.458;2022-07-01T08:06:40;27.40;89.20
42835;DHT22;29335;50.526;30.458;2022-07-01T08:09:06;27.50;88.80
42835;DHT22;29335;50.526;30.458;2022-07-01T08:11:32;27.60;88.70
42835;DHT22;29335;50.526;30.458;2022-07-01T08:13:57;27.80;86.30
42835;DHT22;29335;50.526;30.458;2022-07-01T08:16:23;28.00;84.50
42835;DHT22;29335;50.526;30.458;2022-07-01T08:18:49;28.00;85.40
42835;DHT22;29335;50.526;30.458;2022-07-01T08:21:15;27.80;87.20
42835;DHT22;29335;50.526;30.458;2022-07-01T08:23:40;27.60;88.40
42835;DHT22;29335;50.526;30.458;2022-07-01T08:26:06;28.00;87.50
42835;DHT22;29335;50.526;30.458;2022-07-01T08:28:31;28.00;87.00
42835;DHT22;29335;50.526;30.458;2022-07-01T08:30:57;27.70;87.60
42835;DHT22;29335;50.526;30.458;2022-07-01T08:33:23;28.20;86.70
42835;DHT22;29335;50.526;30.458;2022-07-01T08:35:48;28.30;85.20
42835;DHT22;29335;50.526;30.458;2022-07-01T08:38:14;28.10;85.90
42835;DHT22;29335;50.526;30.458;2022-07-01T08:40:40;28.20;84.50
42835;DHT22;29335;50.526;30.458;2022-07-01T08:43:06;28.30;83.40
42835;DHT22;29335;50.526;30.458;2022-07-01T08:45:34;28.10;82.70
42835;DHT22;29335;50.526;30.458;2022-07-01T08:48:01;28.00;81.70
42835;DHT22;29335;50.526;30.458;2022-07-01T08:50:29;27.90;81.90
42835;DHT22;29335;50.526;30.458;2022-07-01T08:52:55;27.90;81.20
42835;DHT22;29335;50.526;30.458;2022-07-01T08:55:21;27.90;80.20
42835;DHT22;29335;50.526;30.458;2022-07-01T08:57:47;28.00;80.30
42835;DHT22;29335;50.526;30.458;2022-07-01T09:00:13;28.00;80.00
42835;DHT22;29335;50.526;30.458;2022-07-01T09:03:02;28.00;80.40
42835;DHT22;29335;50.526;30.458;2022-07-01T09:05:30;28.40;78.80
42835;DHT22;29335;50.526;30.458;2022-07-01T09:08:11;28.60;78.70
42835;DHT22;29335;50.526;30.458;2022-07-01T09:10:36;28.40;79.80
42835;DHT22;29335;50.526;30.458;2022-07-01T09:13:07;28.20;79.50
42835;DHT22;29335;50.526;30.458;2022-07-01T09:15:33;28.00;80.30
42835;DHT22;29335;50.526;30.458;2022-07-01T09:18:11;28.00;82.00
42835;DHT22;29335;50.526;30.458;2022-07-01T09:20:42;28.20;79.80
42835;DHT22;29335;50.526;30.458;2022-07-01T09:23:15;28.10;79.90
42835;DHT22;29335;50.526;30.458;2022-07-01T09:25:42;28.30;81.40
42835;DHT22;29335;50.526;30.458;2022-07-01T09:28:19;28.20;79.00
42835;DHT22;29335;50.526;30.458;2022-07-01T09:30:48;28.00;79.40
42835;DHT22;29335;50.526;30.458;2022-07-01T09:33:15;28.20;78.60
42835;DHT22;29335;50.526;30.458;2022-07-01T09:35:42;27.80;77.40
42835;DHT22;29335;50.526;30.458;2022-07-01T09:38:11;28.00;74.60
42835;DHT22;29335;50.526;30.458;2022-07-01T09:41:10;27.90;75.20
42835;DHT22;29335;50.526;30.458;2022-07-01T09:43:37;27.90;77.00
42835;DHT22;29335;50.526;30.458;2022-07-01T09:46:07;27.90;75.80
42835;DHT22;29335;50.526;30.458;2022-07-01T09:50:59;28.30;74.10
42835;DHT22;29335;50.526;30.458;2022-07-01T09:53:25;28.20;70.90
42835;DHT22;29335;50.526;30.458;2022-07-01T09:55:51;28.10;72.00
42835;DHT22;29335;50.526;30.458;2022-07-01T09:58:17;28.20;72.90
42835;DHT22;29335;50.526;30.458;2022-07-01T10:00:43;28.40;72.40
42835;DHT22;29335;50.526;30.458;2022-07-01T10:03:09;28.30;72.20
42835;DHT22;29335;50.526;30.458;2022-07-01T10:05:51;28.30;73.20
42835;DHT22;29335;50.526;30.458;2022-07-01T10:12:42;28.90;69.00
42835;DHT22;29335;50.526;30.458;2022-07-01T10:14:38;28.40;63.70
42835;DHT22;29335;50.526;30.458;2022-07-01T10:17:05;28.50;62.40
42835;DHT22;29335;50.526;30.458;2022-07-01T10:19:31;29.10;63.10
42835;DHT22;29335;50.526;30.458;2022-07-01T10:22:24;28.70;63.80
42835;DHT22;29335;50.526;30.458;2022-07-01T10:24:50;28.60;68.80
42835;DHT22;29335;50.526;30.458;2022-07-01T10:27:24;28.80;63.40
42835;DHT22;29335;50.526;30.458;2022-07-01T10:30:13;28.70;60.10
42835;DHT22;29335;50.526;30.458;2022-07-01T10:32:47;29.10;59.00
42835;DHT22;29335;50.526;30.458;2022-07-01T10:35:13;29.20;61.00
42835;DHT22;29335;50.526;30.458;2022-07-01T10:37:59;29.10;62.20
42835;DHT22;29335;50.526;30.458;2022-07-01T10:40:45;29.10;58.70
42835;DHT22;29335;50.526;30.458;2022-07-01T10:43:15;28.90;58.90
42835;DHT22;29335;50.526;30.458;2022-07-01T10:45:45;29.00;58.90
42835;DHT22;29335;50.526;30.458;2022-07-01T10:48:18;28.60;61.00
42835;DHT22;29335;50.526;30.458;2022-07-01T10:50:45;28.80;57.10
42835;DHT22;29335;50.526;30.458;2022-07-01T10:53:12;28.70;59.50
42835;DHT22;29335;50.526;30.458;2022-07-01T10:55:38;28.70;60.50
42835;DHT22;29335;50.526;30.458;2022-07-01T10:58:04;28.70;59.50
42835;DHT22;29335;50.526;30.458;2022-07-01T11:00:32;28.60;59.90
42835;DHT22;29335;50.526;30.458;2022-07-01T11:03:06;28.80;59.60
42835;DHT22;29335;50.526;30.458;2022-07-01T11:05:32;28.90;58.40
42835;DHT22;29335;50.526;30.458;2022-07-01T11:07:57;28.90;59.70
42835;DHT22;29335;50.526;30.458;2022-07-01T11:10:23;29.10;59.20
42835;DHT22;29335;50.526;30.458;2022-07-01T11:12:50;29.60;59.00
42835;DHT22;29335;50.526;30.458;2022-07-01T11:15:16;29.10;59.70
42835;DHT22;29335;50.526;30.458;2022-07-01T11:17:51;29.10;59.30
42835;DHT22;29335;50.526;30.458;2022-07-01T11:20:17;29.50;58.40
42835;DHT22;29335;50.526;30.458;2022-07-01T11:22:43;29.20;59.20
42835;DHT22;29335;50.526;30.458;2022-07-01T11:25:10;29.20;58.90
42835;DHT22;29335;50.526;30.458;2022-07-01T11:27:37;29.20;58.70
42835;DHT22;29335;50.526;30.458;2022-07-01T11:30:08;29.00;58.70
42835;DHT22;29335;50.526;30.458;2022-07-01T11:32:44;29.20;59.10
42835;DHT22;29335;50.526;30.458;2022-07-01T11:35:21;29.20;59.40
42835;DHT22;29335;50.526;30.458;2022-07-01T11:41:04;28.80;61.10
42835;DHT22;29335;50.526;30.458;2022-07-01T11:43:33;29.10;60.50
42835;DHT22;29335;50.526;30.458;2022-07-01T11:46:00;29.10;61.20
42835;DHT22;29335;50.526;30.458;2022-07-01T11:48:41;29.10;62.90
42835;DHT22;29335;50.526;30.458;2022-07-01T11:51:24;29.20;62.10
42835;DHT22;29335;50.526;30.458;2022-07-01T11:53:54;29.10;60.90
42835;DHT22;29335;50.526;30.458;2022-07-01T11:56:34;29.30;59.80
42835;DHT22;29335;50.526;30.458;2022-07-01T11:59:01;29.10;62.60
42835;DHT22;29335;50.526;30.458;2022-07-01T12:01:34;28.80;63.60
42835;DHT22;29335;50.526;30.458;2022-07-01T12:04:03;29.10;62.10
42835;DHT22;29335;50.526;30.458;2022-07-01T12:06:29;29.00;61.10
42835;DHT22;29335;50.526;30.458;2022-07-01T12:08:56;29.00;61.00
42835;DHT22;29335;50.526;30.458;2022-07-01T12:11:23;29.00;62.40
42835;DHT22;29335;50.526;30.458;2022-07-01T12:13:50;29.00;62.90
42835;DHT22;29335;50.526;30.458;2022-07-01T12:16:16;29.00;63.70
42835;DHT22;29335;50.526;30.458;2022-07-01T12:18:59;30.30;64.60
42835;DHT22;29335;50.526;30.458;2022-07-01T12:21:27;28.70;64.30
42835;DHT22;29335;50.526;30.458;2022-07-01T12:24:10;28.90;62.40
42835;DHT22;29335;50.526;30.458;2022-07-01T12:27:07;28.80;63.00
42835;DHT22;29335;50.526;30.458;2022-07-01T12:29:53;28.90;62.00
42835;DHT22;29335;50.526;30.458;2022-07-01T12:32:21;29.10;63.40
42835;DHT22;29335;50.526;30.458;2022-07-01T12:35:01;29.00;62.40
42835;DHT22;29335;50.526;30.458;2022-07-01T12:37:32;29.10;60.50
42835;DHT22;29335;50.526;30.458;2022-07-01T12:40:01;29.00;61.00
42835;DHT22;29335;50.526;30.458;2022-07-01T12:42:38;29.00;61.30
42835;DHT22;29335;50.526;30.458;2022-07-01T12:45:10;29.00;59.30
42835;DHT22;29335;50.526;30.458;2022-07-01T12:47:44;28.90;60.00
42835;DHT22;29335;50.526;30.458;2022-07-01T12:52:36;29.10;59.00
42835;DHT22;29335;50.526;30.458;2022-07-01T12:55:21;29.00;59.90
42835;DHT22;29335;50.526;30.458;2022-07-01T12:57:48;29.10;60.00
42835;DHT22;29335;50.526;30.458;2022-07-01T13:00:17;29.30;60.00
42835;DHT22;29335;50.526;30.458;2022-07-01T13:02:43;29.20;56.60
42835;DHT22;29335;50.526;30.458;2022-07-01T13:05:08;29.10;59.10
42835;DHT22;29335;50.526;30.458;2022-07-01T13:07:34;29.20;58.80
42835;DHT22;29335;50.526;30.458;2022-07-01T13:10:00;29.30;58.90
42835;DHT22;29335;50.526;30.458;2022-07-01T13:12:26;29.30;58.60
42835;DHT22;29335;50.526;30.458;2022-07-01T13:14:51;29.20;56.90
42835;DHT22;29335;50.526;30.458;2022-07-01T13:17:17;29.20;57.80
42835;DHT22;29335;50.526;30.458;2022-07-01T13:19:43;29.40;58.60
42835;DHT22;29335;50.526;30.458;2022-07-01T13:22:08;29.50;57.80
42835;DHT22;29335;50.526;30.458;2022-07-01T13:24:34;29.50;56.10
42835;DHT22;29335;50.526;30.458;2022-07-01T13:27:00;29.20;56.80
42835;DHT22;29335;50.526;30.458;2022-07-01T13:29:25;29.10;58.70
42835;DHT22;29335;50.526;30.458;2022-07-01T13:31:51;29.10;58.90
42835;DHT22;29335;50.526;30.458;2022-07-01T13:34:17;29.20;58.20
42835;DHT22;29335;50.526;30.458;2022-07-01T13:36:42;29.40;58.80
42835;DHT22;29335;50.526;30.458;2022-07-01T13:39:08;29.20;59.60
42835;DHT22;29335;50.526;30.458;2022-07-01T13:41:34;29.40;58.40
42835;DHT22;29335;50.526;30.458;2022-07-01T13:44:03;29.80;57.50
42835;DHT22;29335;50.526;30.458;2022-07-01T13:46:29;29.80;55.30
42835;DHT22;29335;50.526;30.458;2022-07-01T13:48:55;29.60;55.00
42835;DHT22;29335;50.526;30.458;2022-07-01T13:51:21;29.50;54.60
42835;DHT22;29335;50.526;30.458;2022-07-01T13:53:46;29.40;54.50
42835;DHT22;29335;50.526;30.458;2022-07-01T13:56:12;29.40;55.10
42835;DHT22;29335;50.526;30.458;2022-07-01T13:58:37;29.30;56.00
42835;DHT22;29335;50.526;30.458;2022-07-01T14:01:03;29.20;56.40
42835;DHT22;29335;50.526;30.458;2022-07-01T14:03:29;29.30;55.50
42835;DHT22;29335;50.526;30.458;2022-07-01T14:05:54;29.30;54.90
42835;DHT22;29335;50.526;30.458;2022-07-01T14:08:20;29.30;55.30
42835;DHT22;29335;50.526;30.458;2022-07-01T14:10:46;29.40;56.90
42835;DHT22;29335;50.526;30.458;2022-07-01T14:13:11;29.40;55.60
42835;DHT22;29335;50.526;30.458;2022-07-01T14:15:37;29.30;55.30
42835;DHT22;29335;50.526;30.458;2022-07-01T14:18:03;29.40;56.60
42835;DHT22;29335;50.526;30.458;2022-07-01T14:20:29;29.20;57.00
42835;DHT22;29335;50.526;30.458;2022-07-01T14:22:55;29.00;57.50
42835;DHT22;29335;50.526;30.458;2022-07-01T14:25:21;29.20;57.80
42835;DHT22;29335;50.526;30.458;2022-07-01T14:27:47;29.30;57.60
42835;DHT22;29335;50.526;30.458;2022-07-01T14:30:15;29.80;56.10
42835;DHT22;29335;50.526;30.458;2022-07-01T14:32:41;30.00;55.90
42835;DHT22;29335;50.526;30.458;2022-07-01T14:35:08;29.40;56.90
42835;DHT22;29335;50.526;30.458;2022-07-01T14:37:34;29.40;56.30
42835;DHT22;29335;50.526;30.458;2022-07-01T14:40:00;29.30;56.50
42835;DHT22;29335;50.526;30.458;2022-07-01T14:42:26;29.00;56.80
42835;DHT22;29335;50.526;30.458;2022-07-01T14:44:53;29.30;55.90
42835;DHT22;29335;50.526;30.458;2022-07-01T14:47:19;29.30;56.00
42835;DHT22;29335;50.526;30.458;2022-07-01T14:49:45;29.10;56.00
42835;DHT22;29335;50.526;30.458;2022-07-01T14:52:11;29.00;55.60
42835;DHT22;29335;50.526;30.458;2022-07-01T14:54:38;28.80;55.90
42835;DHT22;29335;50.526;30.458;2022-07-01T14:57:04;29.00;55.60
42835;DHT22;29335;50.526;30.458;2022-07-01T14:59:30;28.90;56.30
42835;DHT22;29335;50.526;30.458;2022-07-01T15:01:57;29.00;57.00
42835;DHT22;29335;50.526;30.458;2022-07-01T15:04:27;29.10;55.80
42835;DHT22;29335;50.526;30.458;2022-07-01T15:06:53;29.00;55.90
42835;DHT22;29335;50.526;30.458;2022-07-01T15:09:18;29.00;56.20
42835;DHT22;29335;50.526;30.458;2022-07-01T15:11:47;29.10;56.40
42835;DHT22;29335;50.526;30.458;2022-07-01T15:14:13;29.10;56.30
42835;DHT22;29335;50.526;30.458;2022-07-01T15:16:39;29.10;56.10
42835;DHT22;29335;50.526;30.458;2022-07-01T15:19:05;29.00;56.20
42835;DHT22;29335;50.526;30.458;2022-07-01T15:21:30;29.10;56.10
42835;DHT22;29335;50.526;30.458;2022-07-01T15:23:56;29.00;56.40
42835;DHT22;29335;50.526;30.458;2022-07-01T15:26:22;29.00;56.30
42835;DHT22;29335;50.526;30.458;2022-07-01T15:28:48;28.90;56.90